createdAt,value
2018-08-11T00:00:16.608Z,98.33
2018-08-11T00:01:16.642Z,97.75
2018-08-11T00:02:16.678Z,97.56
2018-08-11T00:03:16.708Z,97.66
2018-08-11T00:04:16.742Z,97.95
2018-08-11T00:05:16.779Z,97.85
2018-08-11T00:06:16.811Z,98.43
2018-08-11T00:07:16.843Z,98.33
2018-08-11T00:08:16.879Z,97.95
2018-08-11T00:09:16.918Z,98.52
2018-08-11T00:10:16.966Z,98.71
2018-08-11T00:11:16.979Z,99.19
2018-08-11T00:12:17.011Z,98.81
2018-08-11T00:13:17.045Z,99.81
2018-08-11T00:14:17.079Z,99.24
2018-08-11T00:15:17.111Z,99.52
2018-08-11T00:16:17.145Z,99.99
2018-08-11T00:17:17.178Z,99.99
2018-08-11T00:18:17.211Z,99.99
2018-08-11T00:19:17.244Z,99.99
2018-08-11T00:20:17.281Z,99.99
2018-08-11T00:21:17.316Z,99.52
2018-08-11T00:22:17.345Z,99.99
2018-08-11T00:23:17.381Z,99.99
2018-08-11T00:24:17.412Z,99.99
2018-08-11T00:25:17.445Z,99.99
2018-08-11T00:26:17.481Z,99.99
2018-08-11T00:27:17.511Z,99.99
2018-08-11T00:28:17.545Z,99.99
2018-08-11T00:29:17.577Z,99.99
2018-08-11T00:30:17.612Z,99.99
2018-08-11T00:31:17.646Z,99.99
2018-08-11T00:32:17.677Z,99.99
2018-08-11T00:33:17.710Z,99.99
2018-08-11T00:34:17.745Z,99.99
2018-08-11T00:35:17.776Z,99.99
2018-08-11T00:36:17.836Z,99.99
2018-08-11T00:37:17.845Z,99.99
2018-08-11T00:38:17.879Z,99.99
2018-08-11T00:39:17.909Z,99.99
2018-08-11T00:40:17.943Z,99.99
2018-08-11T00:41:17.976Z,99.99
2018-08-11T00:42:18.011Z,99.99
2018-08-11T00:43:18.041Z,99.99
2018-08-11T00:44:18.075Z,99.99
2018-08-11T00:45:18.108Z,99.99
2018-08-11T00:46:18.142Z,99.99
2018-08-11T00:47:18.173Z,99.99
2018-08-11T00:48:18.207Z,99.99
2018-08-11T00:49:18.267Z,99.99
2018-08-11T00:50:18.273Z,99.99
2018-08-11T00:51:18.308Z,99.99
2018-08-11T00:52:18.340Z,99.99
2018-08-11T00:53:18.372Z,99.99
2018-08-11T00:54:18.407Z,99.99
2018-08-11T00:55:18.438Z,99.99
2018-08-11T00:56:18.470Z,99.99
2018-08-11T00:57:18.505Z,99.99
2018-08-11T00:58:18.538Z,99.99
2018-08-11T00:59:18.570Z,99.99
2018-08-11T01:00:18.603Z,99.99
2018-08-11T01:01:18.636Z,99.99
2018-08-11T01:02:18.679Z,99.99
2018-08-11T01:03:18.701Z,99.99
2018-08-11T01:04:18.740Z,99.99
2018-08-11T01:05:18.769Z,99.99
2018-08-11T01:06:18.802Z,99.99
2018-08-11T01:07:18.833Z,99.99
2018-08-11T01:08:18.867Z,99.99
2018-08-11T01:09:18.900Z,99.99
2018-08-11T01:10:18.934Z,99.99
2018-08-11T01:11:18.965Z,99.99
2018-08-11T01:12:18.999Z,99.99
2018-08-11T01:13:19.030Z,99.99
2018-08-11T01:14:19.064Z,99.99
2018-08-11T01:15:19.099Z,99.99
2018-08-11T01:16:19.130Z,99.99
2018-08-11T01:17:19.162Z,99.99
2018-08-11T01:18:19.195Z,99.99
2018-08-11T01:19:19.228Z,99.99
2018-08-11T01:20:19.261Z,99.99
2018-08-11T01:21:19.292Z,99.99
2018-08-11T01:22:19.326Z,99.99
2018-08-11T01:23:19.359Z,99.99
2018-08-11T01:24:19.392Z,99.99
2018-08-11T01:25:19.425Z,99.99
2018-08-11T01:26:19.458Z,99.99
2018-08-11T01:27:19.489Z,99.99
2018-08-11T01:28:19.522Z,99.99
2018-08-11T01:29:19.556Z,99.99
2018-08-11T01:30:19.588Z,99.99
2018-08-11T01:31:19.621Z,99.99
2018-08-11T01:32:19.654Z,99.99
2018-08-11T01:33:19.686Z,99.99
2018-08-11T01:34:19.720Z,99.99
2018-08-11T01:35:19.752Z,99.99
2018-08-11T01:36:19.783Z,99.99
2018-08-11T01:37:19.816Z,99.99
2018-08-11T01:38:19.850Z,99.99
2018-08-11T01:39:19.882Z,99.99
2018-08-11T01:40:19.915Z,99.99
2018-08-11T01:41:19.948Z,99.99
2018-08-11T01:42:19.984Z,99.99
2018-08-11T01:43:20.013Z,99.99
2018-08-11T01:44:20.120Z,99.99
2018-08-11T01:45:20.077Z,99.99
2018-08-11T01:46:20.110Z,99.99
2018-08-11T01:47:20.141Z,99.99
2018-08-11T01:48:20.175Z,99.99
2018-08-11T01:49:20.208Z,99.99
2018-08-11T01:50:20.241Z,99.99
2018-08-11T01:51:20.273Z,99.99
2018-08-11T01:52:20.304Z,99.99
2018-08-11T01:53:20.338Z,99.99
2018-08-11T01:54:20.371Z,99.99
2018-08-11T01:55:20.401Z,99.99
2018-08-11T01:56:20.434Z,99.99
2018-08-11T01:57:20.468Z,99.99
2018-08-11T01:58:20.501Z,99.99
2018-08-11T01:59:20.532Z,99.99
2018-08-11T02:00:20.565Z,99.99
2018-08-11T02:01:20.597Z,99.99
2018-08-11T02:02:20.634Z,99.99
2018-08-11T02:03:20.662Z,99.99
2018-08-11T02:04:20.696Z,99.99
2018-08-11T02:05:20.742Z,99.99
2018-08-11T02:06:20.761Z,99.99
2018-08-11T02:07:20.793Z,99.99
2018-08-11T02:08:20.825Z,99.99
2018-08-11T02:09:20.857Z,99.99
2018-08-11T02:10:20.891Z,99.99
2018-08-11T02:11:21.003Z,99.99
2018-08-11T02:12:20.956Z,99.99
2018-08-11T02:13:20.988Z,99.99
2018-08-11T02:14:21.021Z,99.99
2018-08-11T02:15:21.052Z,99.99
2018-08-11T02:16:21.085Z,99.99
2018-08-11T02:17:21.118Z,99.99
2018-08-11T02:18:21.150Z,99.99
2018-08-11T02:19:21.182Z,99.99
2018-08-11T02:20:21.216Z,99.99
2018-08-11T02:21:21.248Z,99.99
2018-08-11T02:22:21.281Z,99.99
2018-08-11T02:23:21.312Z,99.99
2018-08-11T02:24:21.344Z,99.99
2018-08-11T02:25:21.382Z,99.99
2018-08-11T02:26:21.411Z,99.99
2018-08-11T02:27:21.441Z,99.99
2018-08-11T02:28:21.475Z,99.99
2018-08-11T02:29:21.508Z,99.99
2018-08-11T02:30:21.541Z,99.99
2018-08-11T02:31:21.572Z,99.99
2018-08-11T02:32:21.605Z,99.99
2018-08-11T02:33:21.638Z,99.99
2018-08-11T02:34:21.735Z,99.99
2018-08-11T02:35:21.703Z,99.99
2018-08-11T02:36:21.736Z,99.99
2018-08-11T02:37:21.767Z,99.99
2018-08-11T02:38:21.801Z,99.99
2018-08-11T02:39:21.832Z,99.99
2018-08-11T02:40:21.864Z,99.99
2018-08-11T02:41:21.897Z,99.99
2018-08-11T02:42:21.929Z,99.99
2018-08-11T02:43:21.961Z,99.99
2018-08-11T02:44:21.993Z,99.99
2018-08-11T02:45:22.027Z,99.99
2018-08-11T02:46:22.061Z,99.99
2018-08-11T02:47:22.090Z,99.99
2018-08-11T02:48:22.124Z,99.99
2018-08-11T02:49:22.156Z,99.99
2018-08-11T02:50:22.188Z,99.99
2018-08-11T02:51:22.219Z,99.99
2018-08-11T02:52:22.253Z,99.99
2018-08-11T02:53:22.285Z,99.99
2018-08-11T02:54:22.317Z,99.99
2018-08-11T02:55:22.348Z,99.99
2018-08-11T02:56:22.382Z,99.99
2018-08-11T02:57:22.414Z,99.99
2018-08-11T02:58:22.448Z,99.99
2018-08-11T02:59:22.478Z,99.99
2018-08-11T03:00:22.512Z,99.99
2018-08-11T03:01:22.545Z,99.99
2018-08-11T03:02:22.589Z,99.99
2018-08-11T03:03:22.607Z,99.99
2018-08-11T03:04:22.641Z,99.99
2018-08-11T03:05:22.673Z,99.99
2018-08-11T03:06:22.706Z,99.99
2018-08-11T03:07:22.737Z,99.99
2018-08-11T03:08:22.769Z,99.99
2018-08-11T03:09:22.801Z,99.99
2018-08-11T03:10:22.834Z,99.99
2018-08-11T03:11:22.866Z,99.99
2018-08-11T03:12:22.899Z,99.99
2018-08-11T03:13:22.931Z,99.99
2018-08-11T03:14:22.965Z,99.99
2018-08-11T03:15:22.995Z,99.99
2018-08-11T03:16:23.028Z,99.99
2018-08-11T03:17:23.061Z,99.99
2018-08-11T03:18:23.092Z,99.99
2018-08-11T03:19:23.124Z,99.99
2018-08-11T03:20:23.157Z,99.99
2018-08-11T03:21:23.191Z,99.99
2018-08-11T03:22:23.222Z,99.99
2018-08-11T03:23:23.254Z,99.99
2018-08-11T03:24:23.288Z,99.99
2018-08-11T03:25:23.318Z,99.99
2018-08-11T03:26:23.354Z,99.99
2018-08-11T03:27:23.385Z,99.99
2018-08-11T03:28:23.415Z,99.99
2018-08-11T03:29:23.448Z,99.99
2018-08-11T03:30:23.481Z,99.99
2018-08-11T03:31:23.513Z,99.99
2018-08-11T03:32:23.543Z,99.99
2018-08-11T03:33:23.578Z,99.99
2018-08-11T03:34:23.610Z,99.99
2018-08-11T03:35:23.641Z,99.99
2018-08-11T03:36:23.675Z,99.99
2018-08-11T03:37:23.707Z,99.99
2018-08-11T03:38:23.742Z,99.99
2018-08-11T03:39:23.770Z,99.99
2018-08-11T03:40:23.804Z,99.99
2018-08-11T03:41:23.836Z,99.99
2018-08-11T03:42:23.868Z,99.99
2018-08-11T03:43:23.902Z,99.99
2018-08-11T03:44:23.934Z,99.99
2018-08-11T03:45:23.966Z,99.99
2018-08-11T03:46:23.999Z,99.99
2018-08-11T03:47:24.030Z,99.99
2018-08-11T03:48:24.064Z,99.99
2018-08-11T03:49:24.096Z,99.99
2018-08-11T03:50:24.128Z,99.99
2018-08-11T03:51:24.160Z,99.99
2018-08-11T03:52:24.196Z,99.99
2018-08-11T03:53:24.226Z,99.99
2018-08-11T03:54:24.262Z,99.99
2018-08-11T03:55:24.292Z,99.99
2018-08-11T03:56:24.323Z,99.99
2018-08-11T03:57:24.354Z,99.99
2018-08-11T03:58:24.387Z,99.99
2018-08-11T03:59:24.422Z,99.99
2018-08-11T04:00:24.451Z,99.99
2018-08-11T04:01:24.483Z,99.99
2018-08-11T04:02:24.518Z,99.99
2018-08-11T04:03:24.549Z,99.99
2018-08-11T04:04:24.581Z,99.99
2018-08-11T04:05:24.613Z,99.99
2018-08-11T04:06:24.646Z,99.99
2018-08-11T04:07:24.678Z,99.99
2018-08-11T04:08:24.711Z,99.99
2018-08-11T04:09:24.743Z,99.99
2018-08-11T04:10:24.775Z,99.99
2018-08-11T04:11:24.806Z,99.99
2018-08-11T04:12:24.840Z,99.99
2018-08-11T04:13:24.873Z,99.99
2018-08-11T04:14:24.906Z,99.99
2018-08-11T04:15:24.937Z,99.99
2018-08-11T04:16:24.969Z,99.99
2018-08-11T04:17:25.001Z,99.99
2018-08-11T04:18:25.035Z,99.99
2018-08-11T04:19:25.067Z,99.99
2018-08-11T04:20:25.099Z,99.99
2018-08-11T04:21:25.132Z,99.99
2018-08-11T04:22:25.164Z,99.99
2018-08-11T04:23:25.196Z,99.99
2018-08-11T04:24:25.229Z,99.99
2018-08-11T04:25:25.261Z,99.99
2018-08-11T04:26:25.293Z,99.99
2018-08-11T04:27:25.324Z,99.99
2018-08-11T04:28:25.358Z,99.99
2018-08-11T04:29:25.391Z,99.99
2018-08-11T04:30:25.421Z,99.99
2018-08-11T04:31:25.454Z,99.99
2018-08-11T04:32:25.487Z,99.99
2018-08-11T04:33:25.519Z,99.99
2018-08-11T04:34:25.553Z,99.99
2018-08-11T04:35:25.584Z,99.99
2018-08-11T04:36:25.616Z,99.99
2018-08-11T04:37:25.650Z,99.99
2018-08-11T04:38:25.681Z,99.99
2018-08-11T04:39:25.713Z,99.99
2018-08-11T04:40:25.746Z,99.99
2018-08-11T04:41:25.780Z,99.99
2018-08-11T04:42:25.811Z,99.99
2018-08-11T04:43:25.842Z,99.99
2018-08-11T04:44:25.876Z,99.99
2018-08-11T04:45:25.911Z,99.99
2018-08-11T04:46:25.941Z,99.99
2018-08-11T04:47:25.973Z,99.99
2018-08-11T04:48:26.008Z,99.99
2018-08-11T04:49:26.039Z,99.99
2018-08-11T04:50:26.072Z,99.99
2018-08-11T04:51:26.103Z,99.99
2018-08-11T04:52:26.135Z,99.99
2018-08-11T04:53:26.168Z,99.99
2018-08-11T04:54:26.204Z,99.99
2018-08-11T04:55:26.234Z,99.62
2018-08-11T04:56:26.266Z,99.99
2018-08-11T04:57:26.300Z,99.52
2018-08-11T04:58:26.332Z,98.95
2018-08-11T04:59:26.365Z,98.66
2018-08-11T05:00:26.397Z,99.05
2018-08-11T05:01:26.437Z,99.43
2018-08-11T05:02:26.466Z,98.95
2018-08-11T05:03:26.495Z,98.95
2018-08-11T05:04:26.528Z,99.05
2018-08-11T05:05:26.562Z,99.72
2018-08-11T05:06:26.595Z,99.99
2018-08-11T05:07:26.630Z,99.99
2018-08-11T05:08:26.660Z,99.99
2018-08-11T05:09:26.699Z,98.52
2018-08-11T05:10:26.726Z,98.24
2018-08-11T05:11:26.761Z,98.81
2018-08-11T05:12:26.794Z,98.14
2018-08-11T05:13:26.825Z,97.95
2018-08-11T05:14:26.860Z,97.95
2018-08-11T05:15:26.894Z,96.70
2018-08-11T05:16:26.923Z,97.85
2018-08-11T05:17:26.958Z,97.09
2018-08-11T05:18:26.991Z,97.09
2018-08-11T05:19:27.025Z,96.22
2018-08-11T05:20:27.056Z,96.42
2018-08-11T05:21:27.090Z,96.32
2018-08-11T05:22:27.124Z,96.94
2018-08-11T05:23:27.156Z,97.23
2018-08-11T05:24:27.190Z,96.47
2018-08-11T05:25:27.222Z,96.47
2018-08-11T05:26:27.258Z,95.41
2018-08-11T05:27:27.290Z,95.31
2018-08-11T05:28:27.326Z,96.27
2018-08-11T05:29:27.357Z,96.27
2018-08-11T05:30:27.391Z,95.56
2018-08-11T05:31:27.422Z,95.26
2018-08-11T05:32:27.458Z,94.50
2018-08-11T05:33:27.491Z,93.93
2018-08-11T05:34:27.524Z,94.89
2018-08-11T05:35:27.556Z,94.69
2018-08-11T05:36:27.594Z,94.98
2018-08-11T05:37:27.626Z,94.69
2018-08-11T05:38:27.658Z,94.40
2018-08-11T05:39:27.691Z,94.40
2018-08-11T05:40:27.724Z,94.02
2018-08-11T05:41:27.807Z,94.40
2018-08-11T05:42:27.793Z,93.93
2018-08-11T05:43:27.829Z,94.12
2018-08-11T05:44:27.860Z,93.63
2018-08-11T05:45:27.897Z,93.11
2018-08-11T05:46:27.928Z,92.82
2018-08-11T05:47:27.961Z,92.72
2018-08-11T05:48:27.995Z,92.54
2018-08-11T05:49:28.030Z,92.54
2018-08-11T05:50:28.065Z,91.67
2018-08-11T05:51:28.098Z,91.77
2018-08-11T05:52:28.132Z,91.86
2018-08-11T05:53:28.165Z,90.90
2018-08-11T05:54:28.199Z,90.66
2018-08-11T05:55:28.236Z,90.37
2018-08-11T05:56:28.268Z,90.37
2018-08-11T05:57:28.301Z,90.37
2018-08-11T05:58:28.336Z,89.51
2018-08-11T05:59:28.372Z,89.99
2018-08-11T06:00:28.404Z,89.32
2018-08-11T06:01:28.443Z,89.70
2018-08-11T06:02:28.472Z,90.08
2018-08-11T06:03:28.509Z,90.56
2018-08-11T06:04:28.540Z,90.52
2018-08-11T06:05:28.575Z,90.66
2018-08-11T06:06:28.609Z,90.66
2018-08-11T06:07:28.642Z,90.61
2018-08-11T06:08:28.679Z,90.71
2018-08-11T06:09:28.712Z,90.52
2018-08-11T06:10:28.801Z,90.71
2018-08-11T06:11:28.779Z,90.75
2018-08-11T06:12:28.812Z,90.42
2018-08-11T06:13:28.848Z,90.81
2018-08-11T06:14:28.883Z,89.89
2018-08-11T06:15:28.916Z,89.79
2018-08-11T06:16:28.951Z,89.32
2018-08-11T06:17:28.985Z,88.93
2018-08-11T06:18:29.020Z,88.55
2018-08-11T06:19:29.053Z,88.45
2018-08-11T06:20:29.088Z,88.07
2018-08-11T06:21:29.121Z,87.63
2018-08-11T06:22:29.156Z,87.25
2018-08-11T06:23:29.189Z,86.19
2018-08-11T06:24:29.224Z,85.28
2018-08-11T06:25:29.259Z,85.28
2018-08-11T06:26:29.293Z,83.87
2018-08-11T06:27:29.328Z,82.82
2018-08-11T06:28:29.361Z,81.99
2018-08-11T06:29:29.397Z,80.75
2018-08-11T06:30:29.430Z,80.36
2018-08-11T06:31:29.620Z,81.23
2018-08-11T06:32:29.501Z,80.46
2018-08-11T06:33:29.536Z,80.17
2018-08-11T06:34:29.571Z,79.79
2018-08-11T06:35:29.606Z,79.79
2018-08-11T06:36:29.641Z,80.27
2018-08-11T06:37:29.675Z,80.55
2018-08-11T06:38:29.716Z,80.27
2018-08-11T06:39:29.747Z,80.07
2018-08-11T06:40:29.795Z,80.36
2018-08-11T06:41:29.818Z,81.04
2018-08-11T06:42:29.855Z,80.90
2018-08-11T06:43:29.889Z,81.13
2018-08-11T06:44:29.924Z,81.23
2018-08-11T06:45:29.961Z,81.13
2018-08-11T06:46:29.999Z,81.13
2018-08-11T06:47:30.034Z,80.55
2018-08-11T06:48:30.068Z,81.23
2018-08-11T06:49:30.103Z,80.36
2018-08-11T06:50:30.141Z,80.65
2018-08-11T06:51:30.174Z,80.55
2018-08-11T06:52:30.214Z,80.27
2018-08-11T06:53:30.244Z,79.73
2018-08-11T06:54:30.284Z,79.69
2018-08-11T06:55:30.370Z,79.82
2018-08-11T06:56:30.353Z,79.82
2018-08-11T06:57:30.389Z,80.02
2018-08-11T06:58:30.425Z,79.63
2018-08-11T06:59:30.460Z,79.92
2018-08-11T07:00:30.497Z,79.44
2018-08-11T07:01:30.532Z,79.53
2018-08-11T07:02:30.569Z,79.82
2018-08-11T07:03:30.609Z,79.53
2018-08-11T07:04:30.661Z,79.10
2018-08-11T07:05:30.678Z,79.15
2018-08-11T07:06:30.746Z,78.86
2018-08-11T07:07:30.755Z,78.52
2018-08-11T07:08:30.784Z,78.33
2018-08-11T07:09:30.824Z,77.50
2018-08-11T07:10:30.859Z,77.01
2018-08-11T07:11:30.895Z,76.73
2018-08-11T07:12:30.931Z,76.76
2018-08-11T07:13:30.968Z,76.09
2018-08-11T07:14:31.007Z,75.42
2018-08-11T07:15:31.043Z,74.78
2018-08-11T07:16:31.078Z,74.20
2018-08-11T07:17:31.115Z,73.14
2018-08-11T07:18:31.152Z,72.85
2018-08-11T07:19:31.188Z,72.69
2018-08-11T07:20:31.225Z,70.86
2018-08-11T07:21:31.265Z,71.83
2018-08-11T07:22:31.304Z,71.83
2018-08-11T07:23:31.336Z,71.83
2018-08-11T07:24:31.374Z,71.09
2018-08-11T07:25:31.410Z,70.90
2018-08-11T07:26:31.586Z,71.00
2018-08-11T07:27:31.486Z,70.70
2018-08-11T07:28:31.523Z,70.61
2018-08-11T07:29:31.561Z,70.22
2018-08-11T07:30:31.601Z,70.42
2018-08-11T07:31:31.636Z,70.03
2018-08-11T07:32:31.673Z,70.06
2018-08-11T07:33:31.712Z,70.06
2018-08-11T07:34:31.749Z,69.78
2018-08-11T07:35:31.786Z,69.29
2018-08-11T07:36:31.995Z,69.10
2018-08-11T07:37:31.862Z,69.58
2018-08-11T07:38:31.901Z,69.49
2018-08-11T07:39:31.939Z,69.10
2018-08-11T07:40:31.977Z,67.97
2018-08-11T07:41:32.015Z,67.20
2018-08-11T07:42:32.053Z,67.01
2018-08-11T07:43:32.091Z,65.88
2018-08-11T07:44:32.129Z,65.40
2018-08-11T07:45:32.167Z,64.05
2018-08-11T07:46:32.207Z,63.79
2018-08-11T07:47:32.271Z,63.95
2018-08-11T07:48:32.343Z,64.37
2018-08-11T07:49:32.321Z,64.05
2018-08-11T07:50:32.360Z,64.72
2018-08-11T07:51:32.397Z,64.50
2018-08-11T07:52:32.437Z,64.82
2018-08-11T07:53:32.476Z,64.53
2018-08-11T07:54:32.516Z,65.01
2018-08-11T07:55:32.553Z,64.76
2018-08-11T07:56:32.592Z,63.98
2018-08-11T07:57:32.630Z,65.20
2018-08-11T07:58:32.671Z,63.66
2018-08-11T07:59:32.709Z,63.60
2018-08-11T08:00:32.749Z,63.31
2018-08-11T08:01:32.788Z,62.08
2018-08-11T08:02:32.826Z,61.40
2018-08-11T08:03:32.865Z,61.40
2018-08-11T08:04:32.905Z,61.11
2018-08-11T08:05:32.945Z,60.34
2018-08-11T08:06:32.984Z,59.38
2018-08-11T08:07:33.049Z,58.80
2018-08-11T08:08:33.284Z,58.31
2018-08-11T08:09:33.101Z,58.02
2018-08-11T08:10:33.140Z,58.31
2018-08-11T08:11:33.179Z,58.80
2018-08-11T08:12:33.218Z,57.92
2018-08-11T08:13:33.267Z,57.86
2018-08-11T08:14:33.297Z,57.37
2018-08-11T08:15:33.336Z,56.11
2018-08-11T08:16:33.375Z,56.09
2018-08-11T08:17:33.415Z,56.35
2018-08-11T08:18:33.454Z,57.05
2018-08-11T08:19:33.492Z,56.76
2018-08-11T08:20:33.532Z,56.47
2018-08-11T08:21:33.572Z,56.57
2018-08-11T08:22:33.610Z,56.18
2018-08-11T08:23:33.649Z,56.67
2018-08-11T08:24:33.691Z,56.50
2018-08-11T08:25:33.728Z,55.43
2018-08-11T08:26:33.969Z,55.73
2018-08-11T08:27:33.806Z,55.63
2018-08-11T08:28:33.844Z,55.53
2018-08-11T08:29:33.884Z,55.63
2018-08-11T08:30:33.929Z,55.66
2018-08-11T08:31:33.965Z,54.27
2018-08-11T08:32:34.002Z,54.17
2018-08-11T08:33:34.042Z,53.79
2018-08-11T08:34:34.080Z,53.89
2018-08-11T08:35:34.120Z,53.63
2018-08-11T08:36:34.160Z,53.14
2018-08-11T08:37:34.198Z,52.75
2018-08-11T08:38:34.238Z,52.97
2018-08-11T08:39:34.278Z,52.75
2018-08-11T08:40:34.316Z,53.50
2018-08-11T08:41:34.356Z,53.79
2018-08-11T08:42:34.397Z,54.93
2018-08-11T08:43:34.434Z,54.53
2018-08-11T08:44:34.477Z,54.61
2018-08-11T08:45:34.517Z,55.02
2018-08-11T08:46:34.555Z,54.75
2018-08-11T08:47:34.641Z,54.01
2018-08-11T08:48:34.633Z,53.23
2018-08-11T08:49:34.672Z,53.36
2018-08-11T08:50:34.712Z,52.78
2018-08-11T08:51:34.751Z,52.87
2018-08-11T08:52:34.792Z,52.49
2018-08-11T08:53:34.831Z,53.53
2018-08-11T08:54:34.871Z,52.87
2018-08-11T08:55:34.910Z,52.78
2018-08-11T08:56:34.953Z,52.22
2018-08-11T08:57:34.990Z,52.03
2018-08-11T08:58:35.080Z,51.37
2018-08-11T08:59:35.070Z,51.52
2018-08-11T09:00:35.111Z,52.97
2018-08-11T09:01:35.151Z,52.97
2018-08-11T09:02:35.191Z,52.51
2018-08-11T09:03:35.229Z,51.93
2018-08-11T09:04:35.269Z,51.90
2018-08-11T09:05:35.310Z,52.22
2018-08-11T09:06:35.351Z,52.20
2018-08-11T09:07:35.389Z,52.00
2018-08-11T09:08:35.430Z,52.20
2018-08-11T09:09:35.471Z,52.29
2018-08-11T09:10:35.511Z,51.84
2018-08-11T09:11:35.568Z,51.84
2018-08-11T09:12:35.608Z,51.76
2018-08-11T09:13:35.630Z,51.47
2018-08-11T09:14:35.685Z,51.28
2018-08-11T09:15:35.713Z,50.50
2018-08-11T09:16:35.777Z,51.11
2018-08-11T09:17:35.836Z,50.99
2018-08-11T09:18:35.863Z,51.86
2018-08-11T09:19:35.999Z,50.89
2018-08-11T09:20:35.913Z,50.53
2018-08-11T09:21:35.956Z,50.34
2018-08-11T09:22:35.998Z,51.37
2018-08-11T09:23:36.034Z,51.47
2018-08-11T09:24:36.074Z,51.47
2018-08-11T09:25:36.924Z,51.74
2018-08-11T09:26:36.159Z,51.93
2018-08-11T09:27:36.197Z,51.84
2018-08-11T09:28:36.237Z,51.74
2018-08-11T09:29:36.276Z,52.15
2018-08-11T09:30:36.317Z,51.37
2018-08-11T09:31:36.357Z,52.25
2018-08-11T09:32:36.398Z,52.54
2018-08-11T09:33:36.438Z,51.96
2018-08-11T09:34:36.479Z,51.96
2018-08-11T09:35:36.518Z,51.76
2018-08-11T09:36:36.563Z,51.69
2018-08-11T09:37:36.601Z,51.01
2018-08-11T09:38:36.647Z,50.72
2018-08-11T09:39:36.723Z,51.01
2018-08-11T09:40:36.722Z,51.96
2018-08-11T09:41:36.764Z,52.34
2018-08-11T09:42:36.804Z,51.40
2018-08-11T09:43:36.847Z,50.72
2018-08-11T09:44:36.885Z,50.99
2018-08-11T09:45:36.969Z,51.76
2018-08-11T09:46:36.967Z,51.01
2018-08-11T09:47:37.009Z,50.62
2018-08-11T09:48:37.110Z,51.47
2018-08-11T09:49:37.090Z,51.47
2018-08-11T09:50:37.236Z,51.67
2018-08-11T09:51:37.171Z,51.57
2018-08-11T09:52:37.212Z,51.40
2018-08-11T09:53:37.253Z,50.34
2018-08-11T09:54:37.296Z,49.49
2018-08-11T09:55:37.334Z,48.44
2018-08-11T09:56:37.376Z,47.40
2018-08-11T09:57:37.417Z,47.42
2018-08-11T09:58:37.512Z,47.30
2018-08-11T09:59:37.499Z,47.30
2018-08-11T10:00:37.543Z,48.90
2018-08-11T10:01:37.630Z,49.29
2018-08-11T10:02:37.624Z,50.50
2018-08-11T10:03:37.664Z,51.18
2018-08-11T10:04:37.707Z,51.37
2018-08-11T10:05:37.747Z,49.71
2018-08-11T10:06:37.789Z,46.18
2018-08-11T10:07:37.829Z,46.45
2018-08-11T10:08:37.872Z,44.92
2018-08-11T10:09:37.913Z,46.55
2018-08-11T10:10:38.053Z,44.74
2018-08-11T10:11:37.998Z,42.63
2018-08-11T10:12:38.040Z,45.18
2018-08-11T10:13:38.094Z,44.24
2018-08-11T10:14:38.125Z,43.43
2018-08-11T10:15:38.167Z,42.02
2018-08-11T10:16:38.210Z,40.48
2018-08-11T10:17:38.254Z,39.86
2018-08-11T10:18:38.340Z,38.08
2018-08-11T10:19:38.342Z,36.49
2018-08-11T10:20:38.387Z,34.81
2018-08-11T10:21:38.436Z,33.95
2018-08-11T10:22:38.479Z,33.95
2018-08-11T10:23:38.525Z,36.85
2018-08-11T10:24:38.572Z,36.69
2018-08-11T10:25:38.619Z,35.86
2018-08-11T10:26:38.665Z,34.92
2018-08-11T10:27:38.713Z,33.67
2018-08-11T10:28:38.762Z,32.69
2018-08-11T10:29:41.635Z,32.81
2018-08-11T10:30:38.859Z,32.68
2018-08-11T10:31:38.908Z,33.36
2018-08-11T10:32:38.959Z,32.33
2018-08-11T10:33:39.007Z,31.48
2018-08-11T10:34:39.060Z,31.21
2018-08-11T10:35:39.144Z,30.65
2018-08-11T10:36:39.157Z,28.78
2018-08-11T10:37:39.208Z,28.44
2018-08-11T10:38:39.258Z,27.08
2018-08-11T10:39:39.309Z,26.42
2018-08-11T10:40:39.361Z,26.21
2018-08-11T10:41:39.411Z,27.22
2018-08-11T10:42:39.464Z,28.52
2018-08-11T10:43:39.516Z,29.97
2018-08-11T10:44:39.896Z,31.51
2018-08-11T10:45:39.645Z,32.28
2018-08-11T10:46:39.671Z,30.19
2018-08-11T10:47:39.723Z,28.75
2018-08-11T10:48:39.776Z,28.59
2018-08-11T10:49:39.828Z,28.23
2018-08-11T10:50:39.898Z,27.47
2018-08-11T10:51:39.932Z,26.39
2018-08-11T10:52:39.986Z,25.59
2018-08-11T10:53:40.039Z,25.21
2018-08-11T10:54:40.092Z,25.99
2018-08-11T10:55:40.145Z,26.10
2018-08-11T10:56:40.197Z,26.84
2018-08-11T10:57:40.252Z,25.42
2018-08-11T10:58:40.305Z,25.23
2018-08-11T10:59:40.357Z,25.81
2018-08-11T11:00:40.431Z,25.82
2018-08-11T11:01:40.463Z,25.38
2018-08-11T11:02:40.720Z,26.32
2018-08-11T11:03:40.576Z,26.35
2018-08-11T11:04:40.624Z,26.73
2018-08-11T11:05:40.677Z,27.14
2018-08-11T11:06:40.733Z,27.23
2018-08-11T11:07:40.788Z,27.70
2018-08-11T11:08:40.838Z,27.64
2018-08-11T11:09:40.893Z,26.31
2018-08-11T11:10:40.947Z,25.16
2018-08-11T11:11:41.003Z,26.25
2018-08-11T11:12:41.054Z,28.38
2018-08-11T11:13:41.109Z,27.51
2018-08-11T11:14:41.163Z,26.84
2018-08-11T11:15:41.214Z,28.61
2018-08-11T11:16:41.268Z,31.10
2018-08-11T11:17:41.321Z,30.33
2018-08-11T11:18:41.374Z,32.12
2018-08-11T11:19:41.425Z,33.53
2018-08-11T11:20:41.489Z,34.86
2018-08-11T11:21:41.528Z,35.72
2018-08-11T11:22:41.580Z,34.84
2018-08-11T11:23:41.630Z,31.50
2018-08-11T11:24:41.681Z,32.51
2018-08-11T11:25:41.755Z,33.65
2018-08-11T11:26:41.782Z,34.60
2018-08-11T11:27:41.833Z,35.06
2018-08-11T11:28:41.881Z,37.54
2018-08-11T11:29:41.930Z,38.20
2018-08-11T11:30:41.979Z,37.09
2018-08-11T11:31:42.028Z,34.74
2018-08-11T11:32:42.076Z,31.89
2018-08-11T11:33:42.125Z,29.77
2018-08-11T11:34:42.174Z,28.68
2018-08-11T11:35:42.221Z,26.76
2018-08-11T11:36:42.271Z,25.68
2018-08-11T11:37:42.319Z,25.49
2018-08-11T11:38:42.370Z,25.03
2018-08-11T11:39:42.464Z,24.04
2018-08-11T11:40:42.470Z,23.74
2018-08-11T11:41:42.521Z,24.21
2018-08-11T11:42:42.606Z,25.56
2018-08-11T11:43:42.626Z,25.09
2018-08-11T11:44:42.675Z,24.90
2018-08-11T11:45:42.727Z,25.95
2018-08-11T11:46:42.780Z,26.23
2018-08-11T11:47:42.830Z,26.40
2018-08-11T11:48:42.883Z,27.48
2018-08-11T11:49:42.935Z,26.54
2018-08-11T11:50:42.988Z,26.30
2018-08-11T11:51:43.040Z,26.24
2018-08-11T11:52:43.096Z,26.03
2018-08-11T11:53:43.149Z,26.72
2018-08-11T11:54:43.201Z,26.17
2018-08-11T11:55:43.252Z,25.01
2018-08-11T11:56:43.306Z,24.10
2018-08-11T11:57:43.359Z,25.09
2018-08-11T11:58:43.413Z,23.91
2018-08-11T11:59:43.466Z,24.02
2018-08-11T12:00:43.520Z,24.04
2018-08-11T12:01:43.573Z,24.11
2018-08-11T12:02:43.627Z,24.52
2018-08-11T12:03:43.680Z,25.56
2018-08-11T12:04:43.734Z,27.92
2018-08-11T12:05:43.804Z,29.62
2018-08-11T12:06:43.842Z,31.81
2018-08-11T12:07:43.910Z,34.00
2018-08-11T12:08:43.950Z,35.35
2018-08-11T12:09:44.608Z,36.04
2018-08-11T12:10:44.051Z,36.51
2018-08-11T12:11:44.109Z,37.17
2018-08-11T12:12:44.152Z,35.14
2018-08-11T12:13:44.205Z,32.74
2018-08-11T12:14:44.274Z,30.55
2018-08-11T12:15:44.326Z,29.64
2018-08-11T12:16:44.365Z,30.35
2018-08-11T12:17:44.437Z,30.94
2018-08-11T12:18:44.466Z,29.23
2018-08-11T12:19:44.504Z,27.56
2018-08-11T12:20:44.557Z,27.76
2018-08-11T12:21:44.609Z,27.56
2018-08-11T12:22:44.660Z,27.58
2018-08-11T12:23:44.709Z,27.37
2018-08-11T12:24:44.761Z,26.41
2018-08-11T12:25:44.814Z,26.54
2018-08-11T12:26:44.865Z,25.46
2018-08-11T12:27:44.916Z,27.64
2018-08-11T12:28:44.969Z,28.50
2018-08-11T12:29:45.036Z,28.74
2018-08-11T12:30:45.095Z,27.47
2018-08-11T12:31:45.153Z,27.58
2018-08-11T12:32:45.189Z,27.10
2018-08-11T12:33:45.238Z,26.46
2018-08-11T12:34:45.288Z,25.19
2018-08-11T12:35:45.348Z,24.20
2018-08-11T12:36:45.413Z,24.09
2018-08-11T12:37:45.481Z,26.26
2018-08-11T12:38:45.498Z,27.44
2018-08-11T12:39:45.564Z,26.90
2018-08-11T12:40:45.605Z,26.39
2018-08-11T12:41:45.677Z,27.87
2018-08-11T12:42:45.709Z,24.86
2018-08-11T12:43:45.761Z,25.20
2018-08-11T12:44:45.813Z,25.07
2018-08-11T12:45:45.874Z,25.59
2018-08-11T12:46:45.919Z,26.07
2018-08-11T12:47:45.972Z,25.83
2018-08-11T12:48:46.024Z,24.73
2018-08-11T12:49:46.085Z,23.28
2018-08-11T12:50:46.134Z,24.08
2018-08-11T12:51:46.186Z,23.78
2018-08-11T12:52:46.241Z,22.94